Time;durP1;ratioP1;P1;durP2;ratioP2;P2;SDS_P1;SDS_P2;PMS_P1;PMS_P2;Temp;Humidity;BMP_temperature;BMP_pressure;BME280_temperature;BME280_humidity;BME280_pressure;Samples;Min_cycle;Max_cycle;Signal;HPM_P1;HPM_P2
2022/11/26 00:10:34;;;;;;;144.60;44.40;;;;;;;2.77;89.77;101025.33;660934;1308;138678;-75
2022/11/26 00:25:42;;;;;;;92.10;33.90;;;;;;;2.78;90.06;101037.37;661007;1311;139450;-76
2022/11/26 00:40:46;;;;;;;91.00;31.80;;;;;;;2.80;90.39;101042.30;661346;1309;138685;-75
2022/11/26 00:55:50;;;;;;;83.70;28.50;;;;;;;2.81;90.60;101041.71;661339;1310;138685;-75
2022/11/26 01:10:53;;;;;;;87.30;28.80;;;;;;;2.81;90.92;101052.60;661544;1304;138571;-76
2022/11/26 01:25:56;;;;;;;109.00;29.40;;;;;;;2.80;90.93;101059.05;661081;1310;138597;-75
2022/11/26 01:41:20;;;;;;;79.40;27.10;;;;;;;2.80;91.47;101066.49;660941;1305;138679;-75
2022/11/26 01:56:48;;;;;;;85.70;25.60;;;;;;;2.82;91.62;101071.41;661266;1311;138613;-75
2022/11/26 02:11:52;;;;;;;79.10;26.70;;;;;;;2.82;91.87;101072.58;661217;1310;138579;-75
2022/11/26 02:27:14;;;;;;;72.60;26.10;;;;;;;2.80;92.31;101073.02;660831;1308;186615;-75
2022/11/26 02:42:23;;;;;;;77.60;26.00;;;;;;;2.79;92.10;101078.95;660923;1311;139259;-75
2022/11/26 02:57:31;;;;;;;78.50;26.70;;;;;;;2.85;92.13;101086.16;660915;1311;139238;-75
2022/11/26 03:12:34;;;;;;;68.70;23.80;;;;;;;2.85;91.67;101097.02;661358;1310;138922;-75
2022/11/26 03:27:38;;;;;;;66.60;24.30;;;;;;;2.82;91.99;101116.00;661428;1311;139376;-75
2022/11/26 03:42:42;;;;;;;72.40;23.80;;;;;;;2.80;92.30;101119.17;661421;1312;138553;-75
2022/11/26 03:57:45;;;;;;;80.70;27.30;;;;;;;2.80;92.88;101131.28;661479;1311;138563;-76
2022/11/26 04:12:49;;;;;;;66.20;22.00;;;;;;;2.87;92.63;101136.84;661171;1310;138554;-76
2022/11/26 04:27:53;;;;;;;96.00;29.90;;;;;;;2.89;92.61;101145.60;661666;1310;138809;-75
2022/11/26 04:42:56;;;;;;;79.60;24.30;;;;;;;2.88;92.75;101145.95;661293;1310;138747;-75
2022/11/26 04:57:59;;;;;;;76.60;27.50;;;;;;;2.86;93.03;101156.59;661305;1308;138809;-75
2022/11/26 05:13:02;;;;;;;73.40;23.70;;;;;;;2.87;93.12;101171.79;661354;1311;138486;-75
2022/11/26 05:28:06;;;;;;;72.80;23.20;;;;;;;2.84;93.24;101190.54;661556;1310;138575;-77
2022/11/26 05:43:09;;;;;;;77.90;25.30;;;;;;;2.85;93.27;101214.52;661122;1299;138732;-77
2022/11/26 05:58:12;;;;;;;130.10;40.00;;;;;;;2.86;93.50;101222.75;661146;1312;139906;-77
2022/11/26 06:13:16;;;;;;;82.60;28.40;;;;;;;2.91;93.40;101239.00;661252;1312;138880;-78
2022/11/26 06:28:20;;;;;;;91.60;33.50;;;;;;;2.91;93.53;101253.35;661533;1310;138592;-76
2022/11/26 06:43:23;;;;;;;90.40;30.80;;;;;;;2.92;93.51;101268.12;661335;1310;138788;-77
2022/11/26 06:58:26;;;;;;;71.50;27.50;;;;;;;2.92;93.55;101285.09;661539;1304;138728;-77
2022/11/26 07:13:30;;;;;;;95.50;37.10;;;;;;;2.87;94.72;101298.94;661408;1310;139179;-77
2022/11/26 07:28:34;;;;;;;87.70;30.00;;;;;;;3.13;94.03;101311.75;663217;1298;138497;-76
2022/11/26 07:43:40;;;;;;;156.80;53.80;;;;;;;3.25;93.37;101331.99;661558;1310;138650;-76
2022/11/26 07:58:44;;;;;;;81.80;30.20;;;;;;;3.32;93.39;101338.09;661026;1310;138614;-76
2022/11/26 08:13:51;;;;;;;599.20;237.30;;;;;;;3.38;93.02;101349.09;661302;1310;138714;-75
2022/11/26 08:28:55;;;;;;;107.10;41.00;;;;;;;3.45;92.84;101365.79;661133;1310;138986;-75
2022/11/26 08:43:58;;;;;;;92.90;36.60;;;;;;;3.45;92.95;101373.55;661398;1310;138790;-76
2022/11/26 08:59:10;;;;;;;82.60;33.70;;;;;;;3.56;92.62;101378.48;661582;1309;138762;-76
2022/11/26 09:14:16;;;;;;;97.10;34.90;;;;;;;3.53;92.88;101400.39;661331;1305;138573;-77
2022/11/26 09:29:22;;;;;;;79.20;32.50;;;;;;;3.51;93.18;101413.95;662541;1303;138794;-77
2022/11/26 09:44:50;;;;;;;74.80;29.50;;;;;;;3.59;93.37;101417.61;661580;1309;138739;-76
2022/11/26 09:59:54;;;;;;;106.20;38.90;;;;;;;3.71;93.18;101430.82;661556;1303;138799;-77
2022/11/26 10:15:01;;;;;;;97.50;36.10;;;;;;;3.74;92.43;101429.81;660801;1299;138811;-78
2022/11/26 10:30:18;;;;;;;67.30;27.20;;;;;;;3.70;91.53;101441.73;660859;1310;138682;-77
2022/11/26 10:45:24;;;;;;;75.50;28.70;;;;;;;3.70;91.27;101459.03;660825;1305;138613;-77
2022/11/26 11:00:35;;;;;;;71.20;29.50;;;;;;;3.77;91.63;101457.55;660477;1310;139233;-77
2022/11/26 11:15:40;;;;;;;86.30;29.10;;;;;;;3.87;91.56;101466.31;661188;1310;138777;-78
2022/11/26 11:30:45;;;;;;;62.10;25.90;;;;;;;3.83;90.85;101471.14;661201;1309;138586;-79
2022/11/26 11:46:00;;;;;;;141.50;50.90;;;;;;;3.95;90.79;101469.81;661225;1309;138569;-78
2022/11/26 12:01:34;;;;;;;92.40;46.50;;;;;;;4.21;90.52;101470.64;660669;1294;140143;-78
2022/11/26 12:16:44;;;;;;;100.40;38.60;;;;;;;4.30;89.74;101488.23;660782;1298;138522;-79
2022/11/26 12:32:13;;;;;;;65.60;24.60;;;;;;;4.16;89.27;101500.43;660553;1301;138859;-78
2022/11/26 12:47:43;;;;;;;190.60;82.70;;;;;;;4.05;89.26;101501.42;661000;1310;138960;-78
2022/11/26 13:02:49;;;;;;;146.80;50.10;;;;;;;3.84;89.52;101493.09;661449;1310;138659;-78
2022/11/26 13:17:58;;;;;;;61.00;23.70;;;;;;;3.82;89.33;101497.67;661197;1310;139021;-78
2022/11/26 13:33:23;;;;;;;;;;;;;;;3.79;89.25;101503.33;661352;1309;138520;-78
2022/11/26 13:48:46;;;;;;;97.00;36.30;;;;;;;3.65;89.89;101510.80;661439;1309;124870;-78
2022/11/26 14:03:50;;;;;;;110.80;44.70;;;;;;;3.63;91.22;101519.20;661717;1310;138815;-79
2022/11/26 14:18:59;;;;;;;141.20;50.30;;;;;;;3.52;92.42;101530.85;660633;1309;138882;-78
2022/11/26 14:34:11;;;;;;;302.90;109.40;;;;;;;3.49;92.90;101531.81;660981;1308;204176;-79
2022/11/26 14:49:34;;;;;;;133.20;50.00;;;;;;;3.44;93.60;101547.74;661139;1310;138911;-79
2022/11/26 15:04:38;;;;;;;85.50;33.70;;;;;;;3.38;94.56;101563.40;663057;1302;139183;-78
2022/11/26 15:19:43;;;;;;;174.90;66.80;;;;;;;3.34;94.37;101564.39;661221;1310;138613;-79
2022/11/26 15:34:46;;;;;;;92.10;37.60;;;;;;;3.35;94.31;101570.08;661303;1305;138917;-79
2022/11/26 15:49:57;;;;;;;166.60;57.30;;;;;;;3.42;94.52;101576.20;661228;1305;139221;-78
2022/11/26 16:05:02;;;;;;;83.20;33.70;;;;;;;3.46;94.25;101584.19;661533;1310;139099;-78
2022/11/26 16:20:16;;;;;;;133.80;44.20;;;;;;;3.36;94.69;101578.32;661149;1309;138492;-78
2022/11/26 16:35:19;;;;;;;137.80;52.20;;;;;;;3.30;94.78;101584.78;661279;1310;138798;-79
2022/11/26 16:50:43;;;;;;;488.10;161.40;;;;;;;3.17;95.23;101599.25;660717;1304;139271;-78
2022/11/26 17:05:49;;;;;;;148.20;47.20;;;;;;;2.81;97.79;101611.90;660880;1310;138849;-79
2022/11/26 17:20:53;;;;;;;88.70;33.90;;;;;;;2.78;98.52;101611.16;661280;1310;138874;-78
2022/11/26 17:35:56;;;;;;;126.70;46.70;;;;;;;2.99;97.60;101615.08;661108;1310;138749;-78
2022/11/26 17:51:00;;;;;;;121.50;44.40;;;;;;;3.00;97.02;101623.02;661001;1310;138707;-78
2022/11/26 18:06:04;;;;;;;130.20;50.00;;;;;;;2.93;97.45;101629.83;661192;1304;139306;-78
2022/11/26 18:21:07;;;;;;;96.40;38.80;;;;;;;2.94;96.89;101632.73;662619;1303;138735;-78
2022/11/26 18:36:14;;;;;;;95.00;33.10;;;;;;;2.93;97.51;101634.31;661250;1310;138677;-79
2022/11/26 18:51:18;;;;;;;100.70;38.50;;;;;;;2.98;97.54;101638.63;660932;1306;139325;-77
2022/11/26 19:06:25;;;;;;;107.40;41.10;;;;;;;2.83;98.51;101654.88;661382;1310;139558;-80
2022/11/26 19:21:31;;;;;;;106.20;40.20;;;;;;;2.89;98.32;101658.30;661007;1312;138968;-79
2022/11/26 19:36:36;;;;;;;116.30;43.70;;;;;;;2.90;99.06;101651.70;661194;1310;138733;-77
2022/11/26 19:51:40;;;;;;;96.20;38.10;;;;;;;2.96;99.40;101655.14;661149;1305;138727;-78
2022/11/26 20:06:44;;;;;;;117.70;38.90;;;;;;;3.01;99.35;101656.50;660849;1311;139814;-78
2022/11/26 20:21:48;;;;;;;118.50;39.60;;;;;;;3.03;99.83;101664.91;661183;1310;139191;-78
2022/11/26 20:36:52;;;;;;;130.30;40.60;;;;;;;2.97;99.70;101667.02;660840;1312;139515;-78
2022/11/26 20:51:55;;;;;;;140.00;45.80;;;;;;;2.79;100.00;101667.25;660623;1311;138734;-78
2022/11/26 21:06:59;;;;;;;158.60;51.70;;;;;;;2.80;100.00;101679.50;659908;1312;139290;-78
2022/11/26 21:22:03;;;;;;;185.10;61.70;;;;;;;2.87;100.00;101688.45;660924;1309;138964;-77
2022/11/26 21:37:06;;;;;;;162.90;50.10;;;;;;;2.88;100.00;101680.27;660875;1308;139082;-78
2022/11/26 21:52:10;;;;;;;172.60;52.20;;;;;;;2.81;100.00;101679.14;661046;1311;139071;-79
2022/11/26 22:07:13;;;;;;;169.50;53.30;;;;;;;2.78;100.00;101682.00;660743;1312;138958;-78
2022/11/26 22:22:17;;;;;;;168.70;53.90;;;;;;;2.90;100.00;101689.19;661536;1309;139424;-77
2022/11/26 22:37:21;;;;;;;155.60;50.40;;;;;;;2.97;100.00;101679.98;661448;1310;138844;-78
2022/11/26 22:52:24;;;;;;;187.90;53.90;;;;;;;3.08;100.00;101676.66;661530;1310;138903;-78
2022/11/26 23:07:28;;;;;;;179.10;55.30;;;;;;;3.08;100.00;101683.23;661584;1310;139089;-78
2022/11/26 23:22:32;;;;;;;176.50;53.60;;;;;;;3.02;100.00;101685.01;661441;1310;138954;-78
2022/11/26 23:37:37;;;;;;;169.10;51.60;;;;;;;3.00;100.00;101674.36;661010;1310;139024;-78
2022/11/26 23:52:40;;;;;;;153.30;47.50;;;;;;;3.05;100.00;101672.98;660911;1310;138953;-78
